首页
METAR-TAF:

METAR-TAF

机场 :

墨西哥城贝尼托·胡亚雷斯国际机场

墨西哥城, 墨西哥

纬度: 19-26N, 经度: 099-06W, 海拔: 2238米

当前天气观测

该预报发布于1小时和6分钟前的08:45 UTC
风速5节,风向
温度 14°C
湿度 67%
气压 1029 hPa
能見度: 9.7公里
散云层高于2000英尺
多云层高于8000英尺
多云层高于20000英尺

METAR: MMMX 150845Z 36005KT 6SM SCT020 BKN080 BKN200 14/08 A3038 NOSIG RMK SLP131 57002 928 8/572 HZY

时间: 03:51 (09:51 UTC)

预报

该预报发布于4小时和54分钟前的04:57 UTC
预报有效从15日的 06点(UTC)到 16日的 12点(UTC)
风速8节,风向北转东北
能見度: 9.7公里
多云层高于2000英尺
多云层高于8000英尺
多云层高于20000英尺
短暂存在
从 15日的 11点(UTC)到 15日的 15点(UTC)
能見度: 4.8公里
多云层高于1500英尺
小雨, 轻雾
从 15日的 1800点(UTC)
风速10节,风向东南
能見度: 9.7公里
散云层高于3000英尺
多云层高于20000英尺
短暂存在
从 16日的 00点(UTC)到 16日的 04点(UTC)
能見度: 9.7公里
多云层高于2000英尺, 积雨云.
小雨

TAF: MMMX 150457Z 1506/1612 03008KT 6SM HZ BKN020 BKN080 BKN200 TX20/1521Z TN13/1512Z TEMPO 1511/1515 3SM -RA BR BKN015 FM151800 13010KT 6SM HZ SCT030 BKN200 TEMPO 1600/1604 6SM -RA BKN020CB

超过4000个机场的气象观测和天气预报(METAR&TAF报告)。

可查询的气象台以黄色和红色小点在地图上表示。

将鼠标移到小点上方,可查看气象台名称。

然后点击查看天气观测和预报。

如需切换地图:点击带黑十字的绿色按钮放大地图;点击带横线的绿色按钮缩小地图;或者点击绿色箭头查看邻近地区的地图。


METAR-TAF: